sensor_id;sensor_type;location;lat;lon;timestamp;temperature;humidity
17986;DHT22;9118;48.122;11.546;2024-03-25T00:01:48;4.40;99.90
17986;DHT22;9118;48.122;11.546;2024-03-25T00:04:14;4.60;99.90
17986;DHT22;9118;48.122;11.546;2024-03-25T00:06:41;4.50;99.90
17986;DHT22;9118;48.122;11.546;2024-03-25T00:09:07;4.70;99.90
17986;DHT22;9118;48.122;11.546;2024-03-25T00:11:39;4.60;99.90
17986;DHT22;9118;48.122;11.546;2024-03-25T00:14:05;4.80;99.90
17986;DHT22;9118;48.122;11.546;2024-03-25T00:16:34;4.60;99.90
17986;DHT22;9118;48.122;11.546;2024-03-25T00:19:00;4.40;99.90
17986;DHT22;9118;48.122;11.546;2024-03-25T00:21:27;4.50;99.90
17986;DHT22;9118;48.122;11.546;2024-03-25T00:23:53;4.40;99.90
17986;DHT22;9118;48.122;11.546;2024-03-25T00:26:21;4.40;99.90
17986;DHT22;9118;48.122;11.546;2024-03-25T00:28:47;4.40;99.90
17986;DHT22;9118;48.122;11.546;2024-03-25T00:31:14;4.60;99.90
17986;DHT22;9118;48.122;11.546;2024-03-25T00:33:42;4.50;99.90
17986;DHT22;9118;48.122;11.546;2024-03-25T00:36:09;4.90;99.90
17986;DHT22;9118;48.122;11.546;2024-03-25T00:38:35;4.50;99.90
17986;DHT22;9118;48.122;11.546;2024-03-25T00:41:02;4.60;99.90
17986;DHT22;9118;48.122;11.546;2024-03-25T00:43:28;4.60;99.90
17986;DHT22;9118;48.122;11.546;2024-03-25T00:45:55;4.70;99.90
17986;DHT22;9118;48.122;11.546;2024-03-25T00:48:21;4.60;99.90
17986;DHT22;9118;48.122;11.546;2024-03-25T00:50:50;4.50;99.90
17986;DHT22;9118;48.122;11.546;2024-03-25T00:53:16;4.50;99.90
17986;DHT22;9118;48.122;11.546;2024-03-25T00:55:43;4.50;99.90
17986;DHT22;9118;48.122;11.546;2024-03-25T00:58:09;4.50;99.90
17986;DHT22;9118;48.122;11.546;2024-03-25T01:00:36;4.50;99.90
17986;DHT22;9118;48.122;11.546;2024-03-25T01:03:02;4.40;99.90
17986;DHT22;9118;48.122;11.546;2024-03-25T01:05:29;4.30;99.90
17986;DHT22;9118;48.122;11.546;2024-03-25T01:07:56;4.40;99.90
17986;DHT22;9118;48.122;11.546;2024-03-25T01:10:23;4.40;99.90
17986;DHT22;9118;48.122;11.546;2024-03-25T01:12:49;4.30;99.90
17986;DHT22;9118;48.122;11.546;2024-03-25T01:15:19;4.50;99.90
17986;DHT22;9118;48.122;11.546;2024-03-25T01:17:45;4.50;99.90
17986;DHT22;9118;48.122;11.546;2024-03-25T01:20:12;3.80;99.90
17986;DHT22;9118;48.122;11.546;2024-03-25T01:22:38;4.60;99.90
17986;DHT22;9118;48.122;11.546;2024-03-25T01:25:18;4.60;99.90
17986;DHT22;9118;48.122;11.546;2024-03-25T01:27:45;4.50;99.90
17986;DHT22;9118;48.122;11.546;2024-03-25T01:30:12;4.60;99.90
17986;DHT22;9118;48.122;11.546;2024-03-25T01:32:38;4.70;99.90
17986;DHT22;9118;48.122;11.546;2024-03-25T01:35:06;4.50;99.90
17986;DHT22;9118;48.122;11.546;2024-03-25T01:37:32;4.40;99.90
17986;DHT22;9118;48.122;11.546;2024-03-25T01:39:59;4.50;99.90
17986;DHT22;9118;48.122;11.546;2024-03-25T01:42:26;4.50;99.90
17986;DHT22;9118;48.122;11.546;2024-03-25T01:44:53;4.20;99.90
17986;DHT22;9118;48.122;11.546;2024-03-25T01:47:19;4.50;99.90
17986;DHT22;9118;48.122;11.546;2024-03-25T01:49:46;4.30;99.90
17986;DHT22;9118;48.122;11.546;2024-03-25T01:52:12;4.30;99.90
17986;DHT22;9118;48.122;11.546;2024-03-25T01:54:39;4.90;99.90
17986;DHT22;9118;48.122;11.546;2024-03-25T01:57:05;4.30;99.90
17986;DHT22;9118;48.122;11.546;2024-03-25T01:59:34;4.40;99.90
17986;DHT22;9118;48.122;11.546;2024-03-25T02:02:01;4.50;99.90
17986;DHT22;9118;48.122;11.546;2024-03-25T02:04:28;4.40;99.90
17986;DHT22;9118;48.122;11.546;2024-03-25T02:06:56;4.10;99.90
17986;DHT22;9118;48.122;11.546;2024-03-25T02:09:24;4.40;99.90
17986;DHT22;9118;48.122;11.546;2024-03-25T02:11:50;4.50;99.90
17986;DHT22;9118;48.122;11.546;2024-03-25T02:14:17;4.30;99.90
17986;DHT22;9118;48.122;11.546;2024-03-25T02:16:45;4.30;99.90
17986;DHT22;9118;48.122;11.546;2024-03-25T02:19:12;4.30;99.90
17986;DHT22;9118;48.122;11.546;2024-03-25T02:21:39;4.40;99.90
17986;DHT22;9118;48.122;11.546;2024-03-25T02:24:07;4.30;99.90
17986;DHT22;9118;48.122;11.546;2024-03-25T02:26:36;4.30;99.90
17986;DHT22;9118;48.122;11.546;2024-03-25T02:29:03;4.20;99.90
17986;DHT22;9118;48.122;11.546;2024-03-25T02:31:29;4.20;99.90
17986;DHT22;9118;48.122;11.546;2024-03-25T02:33:56;4.20;99.90
17986;DHT22;9118;48.122;11.546;2024-03-25T02:36:22;4.20;99.90
17986;DHT22;9118;48.122;11.546;2024-03-25T02:38:49;4.20;99.90
17986;DHT22;9118;48.122;11.546;2024-03-25T02:41:15;4.10;99.90
17986;DHT22;9118;48.122;11.546;2024-03-25T02:43:43;4.10;99.90
17986;DHT22;9118;48.122;11.546;2024-03-25T02:46:09;4.30;99.90
17986;DHT22;9118;48.122;11.546;2024-03-25T02:48:36;4.10;99.90
17986;DHT22;9118;48.122;11.546;2024-03-25T02:51:02;4.20;99.90
17986;DHT22;9118;48.122;11.546;2024-03-25T02:53:29;4.10;99.90
17986;DHT22;9118;48.122;11.546;2024-03-25T02:55:55;4.30;99.90
17986;DHT22;9118;48.122;11.546;2024-03-25T02:58:22;4.30;99.90
17986;DHT22;9118;48.122;11.546;2024-03-25T03:00:49;4.30;99.90
17986;DHT22;9118;48.122;11.546;2024-03-25T03:03:16;4.20;99.90
17986;DHT22;9118;48.122;11.546;2024-03-25T03:05:43;4.10;99.90
17986;DHT22;9118;48.122;11.546;2024-03-25T03:08:10;4.10;99.90
17986;DHT22;9118;48.122;11.546;2024-03-25T03:10:36;4.80;99.90
17986;DHT22;9118;48.122;11.546;2024-03-25T03:13:03;4.20;99.90
17986;DHT22;9118;48.122;11.546;2024-03-25T03:15:28;4.20;99.90
17986;DHT22;9118;48.122;11.546;2024-03-25T03:17:57;4.20;99.90
17986;DHT22;9118;48.122;11.546;2024-03-25T03:20:23;4.10;99.90
17986;DHT22;9118;48.122;11.546;2024-03-25T03:22:50;4.20;99.90
17986;DHT22;9118;48.122;11.546;2024-03-25T03:25:16;4.30;99.90
17986;DHT22;9118;48.122;11.546;2024-03-25T03:27:43;4.40;99.90
17986;DHT22;9118;48.122;11.546;2024-03-25T03:30:09;4.30;99.90
17986;DHT22;9118;48.122;11.546;2024-03-25T03:32:36;4.40;99.90
17986;DHT22;9118;48.122;11.546;2024-03-25T03:35:04;4.40;99.90
17986;DHT22;9118;48.122;11.546;2024-03-25T03:37:31;4.20;99.90
17986;DHT22;9118;48.122;11.546;2024-03-25T03:39:57;4.30;99.90
17986;DHT22;9118;48.122;11.546;2024-03-25T03:42:24;4.70;99.90
17986;DHT22;9118;48.122;11.546;2024-03-25T03:44:50;4.30;99.90
17986;DHT22;9118;48.122;11.546;2024-03-25T03:47:17;4.30;99.90
17986;DHT22;9118;48.122;11.546;2024-03-25T03:49:43;4.20;99.90
17986;DHT22;9118;48.122;11.546;2024-03-25T03:52:11;4.20;99.90
17986;DHT22;9118;48.122;11.546;2024-03-25T03:54:37;4.00;99.90
17986;DHT22;9118;48.122;11.546;2024-03-25T03:57:04;4.10;99.90
17986;DHT22;9118;48.122;11.546;2024-03-25T03:59:30;4.00;99.90
17986;DHT22;9118;48.122;11.546;2024-03-25T04:01:57;3.90;99.90
17986;DHT22;9118;48.122;11.546;2024-03-25T04:04:23;4.10;99.90
17986;DHT22;9118;48.122;11.546;2024-03-25T04:06:50;3.80;99.90
17986;DHT22;9118;48.122;11.546;2024-03-25T04:09:17;3.80;99.90
17986;DHT22;9118;48.122;11.546;2024-03-25T04:11:45;3.80;99.90
17986;DHT22;9118;48.122;11.546;2024-03-25T04:14:11;4.10;99.90
17986;DHT22;9118;48.122;11.546;2024-03-25T04:16:38;3.80;99.90
17986;DHT22;9118;48.122;11.546;2024-03-25T04:19:04;3.80;99.90
17986;DHT22;9118;48.122;11.546;2024-03-25T04:21:31;3.70;99.90
17986;DHT22;9118;48.122;11.546;2024-03-25T04:23:57;3.70;99.90
17986;DHT22;9118;48.122;11.546;2024-03-25T04:26:25;3.80;99.90
17986;DHT22;9118;48.122;11.546;2024-03-25T04:28:51;3.70;99.90
17986;DHT22;9118;48.122;11.546;2024-03-25T04:31:18;3.70;99.90
17986;DHT22;9118;48.122;11.546;2024-03-25T04:33:44;3.80;99.90
17986;DHT22;9118;48.122;11.546;2024-03-25T04:36:11;3.70;99.90
17986;DHT22;9118;48.122;11.546;2024-03-25T04:38:38;3.60;99.90
17986;DHT22;9118;48.122;11.546;2024-03-25T04:41:04;3.70;99.90
17986;DHT22;9118;48.122;11.546;2024-03-25T04:43:32;3.40;99.90
17986;DHT22;9118;48.122;11.546;2024-03-25T04:46:00;3.70;99.90
17986;DHT22;9118;48.122;11.546;2024-03-25T04:48:26;3.60;99.90
17986;DHT22;9118;48.122;11.546;2024-03-25T04:50:51;3.60;99.90
17986;DHT22;9118;48.122;11.546;2024-03-25T04:55:44;3.60;99.90
17986;DHT22;9118;48.122;11.546;2024-03-25T04:58:09;3.70;99.90
17986;DHT22;9118;48.122;11.546;2024-03-25T05:00:37;3.50;99.90
17986;DHT22;9118;48.122;11.546;2024-03-25T05:03:03;3.50;99.90
17986;DHT22;9118;48.122;11.546;2024-03-25T05:05:29;3.50;99.90
17986;DHT22;9118;48.122;11.546;2024-03-25T05:07:55;3.40;99.90
17986;DHT22;9118;48.122;11.546;2024-03-25T05:10:22;3.50;99.90
17986;DHT22;9118;48.122;11.546;2024-03-25T05:12:48;3.40;99.90
17986;DHT22;9118;48.122;11.546;2024-03-25T05:15:14;3.80;99.90
17986;DHT22;9118;48.122;11.546;2024-03-25T05:17:42;3.30;99.90
17986;DHT22;9118;48.122;11.546;2024-03-25T05:20:08;3.30;99.90
17986;DHT22;9118;48.122;11.546;2024-03-25T05:22:35;3.60;99.90
17986;DHT22;9118;48.122;11.546;2024-03-25T05:25:01;3.60;99.90
17986;DHT22;9118;48.122;11.546;2024-03-25T05:27:26;3.40;99.90
17986;DHT22;9118;48.122;11.546;2024-03-25T05:29:52;3.40;99.90
17986;DHT22;9118;48.122;11.546;2024-03-25T05:32:18;4.50;99.90
17986;DHT22;9118;48.122;11.546;2024-03-25T05:34:46;3.50;99.90
17986;DHT22;9118;48.122;11.546;2024-03-25T05:37:11;3.40;99.90
17986;DHT22;9118;48.122;11.546;2024-03-25T05:39:37;3.40;99.90
17986;DHT22;9118;48.122;11.546;2024-03-25T05:42:03;3.40;99.90
17986;DHT22;9118;48.122;11.546;2024-03-25T05:44:29;3.60;99.90
17986;DHT22;9118;48.122;11.546;2024-03-25T05:46:55;3.50;99.90
17986;DHT22;9118;48.122;11.546;2024-03-25T05:49:21;3.60;99.90
17986;DHT22;9118;48.122;11.546;2024-03-25T05:51:49;3.60;99.90
17986;DHT22;9118;48.122;11.546;2024-03-25T05:54:15;3.70;99.90
17986;DHT22;9118;48.122;11.546;2024-03-25T05:56:41;3.70;99.90
17986;DHT22;9118;48.122;11.546;2024-03-25T05:59:07;3.70;99.90
17986;DHT22;9118;48.122;11.546;2024-03-25T06:01:33;3.90;99.90
17986;DHT22;9118;48.122;11.546;2024-03-25T06:03:59;3.80;99.90
17986;DHT22;9118;48.122;11.546;2024-03-25T06:06:25;3.50;99.90
17986;DHT22;9118;48.122;11.546;2024-03-25T06:08:52;3.80;99.90
17986;DHT22;9118;48.122;11.546;2024-03-25T06:11:18;4.10;99.90
17986;DHT22;9118;48.122;11.546;2024-03-25T06:13:45;3.90;99.90
17986;DHT22;9118;48.122;11.546;2024-03-25T06:16:11;4.00;99.90
17986;DHT22;9118;48.122;11.546;2024-03-25T06:18:37;4.00;99.90
17986;DHT22;9118;48.122;11.546;2024-03-25T06:21:03;4.00;99.90
17986;DHT22;9118;48.122;11.546;2024-03-25T06:23:29;4.20;99.90
17986;DHT22;9118;48.122;11.546;2024-03-25T06:25:57;4.10;99.90
17986;DHT22;9118;48.122;11.546;2024-03-25T06:28:23;3.90;99.90
17986;DHT22;9118;48.122;11.546;2024-03-25T06:30:49;4.00;99.90
17986;DHT22;9118;48.122;11.546;2024-03-25T06:33:34;4.10;99.90
17986;DHT22;9118;48.122;11.546;2024-03-25T06:36:19;4.40;99.90
17986;DHT22;9118;48.122;11.546;2024-03-25T06:38:45;4.30;99.90
17986;DHT22;9118;48.122;11.546;2024-03-25T06:41:13;4.30;99.90
17986;DHT22;9118;48.122;11.546;2024-03-25T06:43:39;4.50;99.90
17986;DHT22;9118;48.122;11.546;2024-03-25T06:46:05;4.40;99.90
17986;DHT22;9118;48.122;11.546;2024-03-25T06:48:31;4.40;99.90
17986;DHT22;9118;48.122;11.546;2024-03-25T06:50:58;4.40;99.90
17986;DHT22;9118;48.122;11.546;2024-03-25T06:53:24;4.60;99.90
17986;DHT22;9118;48.122;11.546;2024-03-25T06:55:51;4.50;99.90
17986;DHT22;9118;48.122;11.546;2024-03-25T06:58:18;4.90;99.90
17986;DHT22;9118;48.122;11.546;2024-03-25T07:00:44;4.50;99.90
17986;DHT22;9118;48.122;11.546;2024-03-25T07:03:10;4.80;99.90
17986;DHT22;9118;48.122;11.546;2024-03-25T07:05:36;4.80;99.90
17986;DHT22;9118;48.122;11.546;2024-03-25T07:08:02;4.80;99.90
17986;DHT22;9118;48.122;11.546;2024-03-25T07:10:28;4.90;99.90
17986;DHT22;9118;48.122;11.546;2024-03-25T07:12:54;4.90;99.90
17986;DHT22;9118;48.122;11.546;2024-03-25T07:15:23;4.90;99.90
17986;DHT22;9118;48.122;11.546;2024-03-25T07:17:49;5.30;99.90
17986;DHT22;9118;48.122;11.546;2024-03-25T07:20:15;5.00;99.90
17986;DHT22;9118;48.122;11.546;2024-03-25T07:22:41;5.00;99.90
17986;DHT22;9118;48.122;11.546;2024-03-25T07:25:08;5.20;99.90
17986;DHT22;9118;48.122;11.546;2024-03-25T07:27:34;5.30;99.90
17986;DHT22;9118;48.122;11.546;2024-03-25T07:30:00;5.30;99.90
17986;DHT22;9118;48.122;11.546;2024-03-25T07:32:30;5.70;99.90
17986;DHT22;9118;48.122;11.546;2024-03-25T07:34:58;5.50;99.90
17986;DHT22;9118;48.122;11.546;2024-03-25T07:37:24;5.50;99.90
17986;DHT22;9118;48.122;11.546;2024-03-25T07:39:50;4.90;99.90
17986;DHT22;9118;48.122;11.546;2024-03-25T07:42:16;5.60;99.90
17986;DHT22;9118;48.122;11.546;2024-03-25T07:44:42;5.70;99.90
17986;DHT22;9118;48.122;11.546;2024-03-25T07:47:08;5.90;99.90
17986;DHT22;9118;48.122;11.546;2024-03-25T07:49:35;5.70;99.90
17986;DHT22;9118;48.122;11.546;2024-03-25T07:52:01;5.70;99.90
17986;DHT22;9118;48.122;11.546;2024-03-25T07:54:27;5.80;99.90
17986;DHT22;9118;48.122;11.546;2024-03-25T07:56:53;5.30;99.90
17986;DHT22;9118;48.122;11.546;2024-03-25T07:59:20;5.90;99.90
17986;DHT22;9118;48.122;11.546;2024-03-25T08:01:46;5.90;99.90
17986;DHT22;9118;48.122;11.546;2024-03-25T08:04:12;6.10;99.90
17986;DHT22;9118;48.122;11.546;2024-03-25T08:06:40;6.20;99.90
17986;DHT22;9118;48.122;11.546;2024-03-25T08:09:06;6.30;99.90
17986;DHT22;9118;48.122;11.546;2024-03-25T08:11:33;6.40;99.90
17986;DHT22;9118;48.122;11.546;2024-03-25T08:13:59;6.00;99.90
17986;DHT22;9118;48.122;11.546;2024-03-25T08:16:25;6.60;99.90
17986;DHT22;9118;48.122;11.546;2024-03-25T08:18:51;6.60;99.90
17986;DHT22;9118;48.122;11.546;2024-03-25T08:21:17;6.40;99.90
17986;DHT22;9118;48.122;11.546;2024-03-25T08:23:46;6.60;99.90
17986;DHT22;9118;48.122;11.546;2024-03-25T08:26:12;6.80;99.90
17986;DHT22;9118;48.122;11.546;2024-03-25T08:28:38;6.60;99.90
17986;DHT22;9118;48.122;11.546;2024-03-25T08:31:09;6.60;99.90
17986;DHT22;9118;48.122;11.546;2024-03-25T08:33:35;6.70;99.90
17986;DHT22;9118;48.122;11.546;2024-03-25T08:36:01;6.70;99.90
17986;DHT22;9118;48.122;11.546;2024-03-25T08:40:56;6.90;99.90
17986;DHT22;9118;48.122;11.546;2024-03-25T08:43:24;7.20;99.90
17986;DHT22;9118;48.122;11.546;2024-03-25T08:45:50;7.30;99.90
17986;DHT22;9118;48.122;11.546;2024-03-25T08:48:16;7.40;99.90
17986;DHT22;9118;48.122;11.546;2024-03-25T08:50:42;7.60;99.90
17986;DHT22;9118;48.122;11.546;2024-03-25T08:53:08;7.70;99.90
17986;DHT22;9118;48.122;11.546;2024-03-25T08:55:34;7.80;99.90
17986;DHT22;9118;48.122;11.546;2024-03-25T08:58:05;7.40;99.90
17986;DHT22;9118;48.122;11.546;2024-03-25T09:00:31;7.40;99.90
17986;DHT22;9118;48.122;11.546;2024-03-25T09:02:57;7.40;99.90
17986;DHT22;9118;48.122;11.546;2024-03-25T09:05:23;7.60;99.90
17986;DHT22;9118;48.122;11.546;2024-03-25T09:07:50;7.60;99.90
17986;DHT22;9118;48.122;11.546;2024-03-25T09:10:16;7.90;99.90
17986;DHT22;9118;48.122;11.546;2024-03-25T09:13:01;8.00;99.90
17986;DHT22;9118;48.122;11.546;2024-03-25T09:15:28;8.50;99.90
17986;DHT22;9118;48.122;11.546;2024-03-25T09:17:55;8.70;99.90
17986;DHT22;9118;48.122;11.546;2024-03-25T09:20:21;8.30;99.90
17986;DHT22;9118;48.122;11.546;2024-03-25T09:22:47;8.50;99.90
17986;DHT22;9118;48.122;11.546;2024-03-25T09:25:14;8.50;99.90
17986;DHT22;9118;48.122;11.546;2024-03-25T09:27:40;8.30;99.90
17986;DHT22;9118;48.122;11.546;2024-03-25T09:30:06;8.00;99.90
17986;DHT22;9118;48.122;11.546;2024-03-25T09:32:35;7.80;99.90
17986;DHT22;9118;48.122;11.546;2024-03-25T09:35:01;7.70;99.90
17986;DHT22;9118;48.122;11.546;2024-03-25T09:37:29;7.60;99.90
17986;DHT22;9118;48.122;11.546;2024-03-25T09:39:57;7.90;99.90
17986;DHT22;9118;48.122;11.546;2024-03-25T09:42:33;7.40;99.90
17986;DHT22;9118;48.122;11.546;2024-03-25T09:45:00;8.10;99.90
17986;DHT22;9118;48.122;11.546;2024-03-25T09:47:27;7.20;99.90
17986;DHT22;9118;48.122;11.546;2024-03-25T09:49:55;7.30;99.90
17986;DHT22;9118;48.122;11.546;2024-03-25T09:52:25;7.40;99.90
17986;DHT22;9118;48.122;11.546;2024-03-25T09:54:51;7.40;99.90
17986;DHT22;9118;48.122;11.546;2024-03-25T09:57:17;7.40;99.90
17986;DHT22;9118;48.122;11.546;2024-03-25T09:59:44;7.50;99.90
17986;DHT22;9118;48.122;11.546;2024-03-25T10:02:10;7.60;99.90
17986;DHT22;9118;48.122;11.546;2024-03-25T10:04:37;7.60;99.90
17986;DHT22;9118;48.122;11.546;2024-03-25T10:07:09;7.70;99.90
17986;DHT22;9118;48.122;11.546;2024-03-25T10:09:35;7.80;99.90
17986;DHT22;9118;48.122;11.546;2024-03-25T10:12:05;7.80;99.90
17986;DHT22;9118;48.122;11.546;2024-03-25T10:14:31;7.70;99.90
17986;DHT22;9118;48.122;11.546;2024-03-25T10:16:57;7.90;99.90
17986;DHT22;9118;48.122;11.546;2024-03-25T10:19:23;7.90;99.90
17986;DHT22;9118;48.122;11.546;2024-03-25T10:21:49;8.00;99.90
17986;DHT22;9118;48.122;11.546;2024-03-25T10:24:17;8.20;99.90
17986;DHT22;9118;48.122;11.546;2024-03-25T10:26:44;8.20;99.90
17986;DHT22;9118;48.122;11.546;2024-03-25T10:29:09;8.30;99.90
17986;DHT22;9118;48.122;11.546;2024-03-25T10:31:35;8.30;99.90
17986;DHT22;9118;48.122;11.546;2024-03-25T10:34:02;8.50;99.90
17986;DHT22;9118;48.122;11.546;2024-03-25T10:36:28;8.50;99.90
17986;DHT22;9118;48.122;11.546;2024-03-25T10:38:54;8.20;99.90
17986;DHT22;9118;48.122;11.546;2024-03-25T10:41:22;8.70;99.90
17986;DHT22;9118;48.122;11.546;2024-03-25T10:43:49;8.50;99.90
17986;DHT22;9118;48.122;11.546;2024-03-25T10:46:17;8.50;99.90
17986;DHT22;9118;48.122;11.546;2024-03-25T10:48:47;8.40;99.90
17986;DHT22;9118;48.122;11.546;2024-03-25T10:51:13;8.50;99.90
17986;DHT22;9118;48.122;11.546;2024-03-25T10:53:40;8.70;99.90
17986;DHT22;9118;48.122;11.546;2024-03-25T10:56:06;8.70;99.90
17986;DHT22;9118;48.122;11.546;2024-03-25T10:58:34;9.30;99.90
17986;DHT22;9118;48.122;11.546;2024-03-25T11:01:00;9.50;99.90
17986;DHT22;9118;48.122;11.546;2024-03-25T11:03:27;9.50;99.90
17986;DHT22;9118;48.122;11.546;2024-03-25T11:05:53;9.50;99.90
17986;DHT22;9118;48.122;11.546;2024-03-25T11:08:19;9.50;99.90
17986;DHT22;9118;48.122;11.546;2024-03-25T11:10:46;9.40;99.90
17986;DHT22;9118;48.122;11.546;2024-03-25T11:13:13;9.40;99.90
17986;DHT22;9118;48.122;11.546;2024-03-25T11:15:42;9.40;99.90
17986;DHT22;9118;48.122;11.546;2024-03-25T11:18:10;9.80;99.90
17986;DHT22;9118;48.122;11.546;2024-03-25T11:20:37;9.60;99.90
17986;DHT22;9118;48.122;11.546;2024-03-25T11:23:08;9.80;99.90
17986;DHT22;9118;48.122;11.546;2024-03-25T11:25:34;9.80;99.90
17986;DHT22;9118;48.122;11.546;2024-03-25T11:28:00;10.20;99.90
17986;DHT22;9118;48.122;11.546;2024-03-25T11:32:56;10.30;99.90
17986;DHT22;9118;48.122;11.546;2024-03-25T11:35:22;10.20;99.90
17986;DHT22;9118;48.122;11.546;2024-03-25T12:46:52;10.80;99.90
17986;DHT22;9118;48.122;11.546;2024-03-25T12:49:18;11.40;99.90
17986;DHT22;9118;48.122;11.546;2024-03-25T12:51:44;11.10;99.90
17986;DHT22;9118;48.122;11.546;2024-03-25T12:54:10;11.30;99.90
17986;DHT22;9118;48.122;11.546;2024-03-25T12:56:36;11.30;99.90
17986;DHT22;9118;48.122;11.546;2024-03-25T12:59:02;11.20;99.90
17986;DHT22;9118;48.122;11.546;2024-03-25T13:01:29;11.00;99.90
17986;DHT22;9118;48.122;11.546;2024-03-25T13:03:57;10.90;99.90
17986;DHT22;9118;48.122;11.546;2024-03-25T13:06:23;10.30;99.90
17986;DHT22;9118;48.122;11.546;2024-03-25T13:08:49;10.70;99.90
17986;DHT22;9118;48.122;11.546;2024-03-25T13:11:15;10.70;99.90
17986;DHT22;9118;48.122;11.546;2024-03-25T13:13:41;10.60;99.90
17986;DHT22;9118;48.122;11.546;2024-03-25T13:16:07;10.90;99.90
17986;DHT22;9118;48.122;11.546;2024-03-25T13:18:33;10.90;99.90
17986;DHT22;9118;48.122;11.546;2024-03-25T13:21:01;10.90;99.90
17986;DHT22;9118;48.122;11.546;2024-03-25T13:23:27;10.80;99.90
17986;DHT22;9118;48.122;11.546;2024-03-25T13:25:53;10.40;99.90
17986;DHT22;9118;48.122;11.546;2024-03-25T13:28:19;10.60;99.90
17986;DHT22;9118;48.122;11.546;2024-03-25T13:30:45;10.60;99.90
17986;DHT22;9118;48.122;11.546;2024-03-25T13:33:27;10.80;99.90
17986;DHT22;9118;48.122;11.546;2024-03-25T13:35:55;10.90;99.90
17986;DHT22;9118;48.122;11.546;2024-03-25T13:38:23;10.90;99.90
17986;DHT22;9118;48.122;11.546;2024-03-25T13:40:49;11.00;99.90
17986;DHT22;9118;48.122;11.546;2024-03-25T13:43:15;11.40;99.90
17986;DHT22;9118;48.122;11.546;2024-03-25T13:45:46;11.00;99.90
17986;DHT22;9118;48.122;11.546;2024-03-25T13:48:12;11.10;99.90
17986;DHT22;9118;48.122;11.546;2024-03-25T13:50:38;11.10;99.90
17986;DHT22;9118;48.122;11.546;2024-03-25T13:55:54;11.20;99.90
17986;DHT22;9118;48.122;11.546;2024-03-25T13:58:21;11.20;99.90
17986;DHT22;9118;48.122;11.546;2024-03-25T14:00:47;11.10;99.90
17986;DHT22;9118;48.122;11.546;2024-03-25T14:03:13;11.50;99.90
17986;DHT22;9118;48.122;11.546;2024-03-25T14:05:39;11.40;99.90
17986;DHT22;9118;48.122;11.546;2024-03-25T14:08:06;11.40;99.90
17986;DHT22;9118;48.122;11.546;2024-03-25T14:10:32;11.50;99.90
17986;DHT22;9118;48.122;11.546;2024-03-25T14:13:00;11.90;99.90
17986;DHT22;9118;48.122;11.546;2024-03-25T14:15:26;11.70;99.90
17986;DHT22;9118;48.122;11.546;2024-03-25T14:17:52;11.50;99.90
17986;DHT22;9118;48.122;11.546;2024-03-25T14:20:18;11.60;99.90
17986;DHT22;9118;48.122;11.546;2024-03-25T14:22:44;12.10;99.90
17986;DHT22;9118;48.122;11.546;2024-03-25T14:25:09;11.60;99.90
17986;DHT22;9118;48.122;11.546;2024-03-25T14:27:35;11.70;99.90
17986;DHT22;9118;48.122;11.546;2024-03-25T14:30:03;11.70;99.90
17986;DHT22;9118;48.122;11.546;2024-03-25T14:32:29;11.70;99.90
17986;DHT22;9118;48.122;11.546;2024-03-25T14:34:56;11.90;99.90
17986;DHT22;9118;48.122;11.546;2024-03-25T14:37:22;12.00;99.90
17986;DHT22;9118;48.122;11.546;2024-03-25T14:39:48;11.90;99.90
17986;DHT22;9118;48.122;11.546;2024-03-25T14:42:14;11.70;99.90
17986;DHT22;9118;48.122;11.546;2024-03-25T14:44:40;12.40;99.90
17986;DHT22;9118;48.122;11.546;2024-03-25T14:47:08;12.10;99.90
17986;DHT22;9118;48.122;11.546;2024-03-25T14:54:32;13.40;99.90
17986;DHT22;9118;48.122;11.546;2024-03-25T14:56:59;13.60;99.90
17986;DHT22;9118;48.122;11.546;2024-03-25T14:59:25;14.30;99.90
17986;DHT22;9118;48.122;11.546;2024-03-25T15:01:51;15.10;99.90
17986;DHT22;9118;48.122;11.546;2024-03-25T15:04:19;16.00;99.90
17986;DHT22;9118;48.122;11.546;2024-03-25T15:06:45;17.30;99.90
17986;DHT22;9118;48.122;11.546;2024-03-25T15:09:11;18.70;99.90
17986;DHT22;9118;48.122;11.546;2024-03-25T15:11:37;19.60;99.90
17986;DHT22;9118;48.122;11.546;2024-03-25T15:40:52;23.90;97.40
17986;DHT22;9118;48.122;11.546;2024-03-25T15:43:18;24.20;90.30
17986;DHT22;9118;48.122;11.546;2024-03-25T15:45:53;23.50;93.50
17986;DHT22;9118;48.122;11.546;2024-03-25T15:48:19;23.30;89.40
17986;DHT22;9118;48.122;11.546;2024-03-25T15:50:45;23.50;88.70
17986;DHT22;9118;48.122;11.546;2024-03-25T15:53:11;23.60;87.40
17986;DHT22;9118;48.122;11.546;2024-03-25T15:55:37;23.20;88.30
17986;DHT22;9118;48.122;11.546;2024-03-25T15:58:05;23.10;89.00
17986;DHT22;9118;48.122;11.546;2024-03-25T16:00:31;22.70;91.90
17986;DHT22;9118;48.122;11.546;2024-03-25T16:02:57;22.80;90.80
17986;DHT22;9118;48.122;11.546;2024-03-25T16:05:23;23.90;91.30
17986;DHT22;9118;48.122;11.546;2024-03-25T16:07:50;24.50;92.30
17986;DHT22;9118;48.122;11.546;2024-03-25T16:10:15;25.40;90.20
17986;DHT22;9118;48.122;11.546;2024-03-25T16:12:41;25.30;89.70
17986;DHT22;9118;48.122;11.546;2024-03-25T16:15:09;26.30;86.00
17986;DHT22;9118;48.122;11.546;2024-03-25T16:17:35;27.30;86.70
17986;DHT22;9118;48.122;11.546;2024-03-25T16:20:01;27.60;87.20
17986;DHT22;9118;48.122;11.546;2024-03-25T16:22:27;28.00;80.90
17986;DHT22;9118;48.122;11.546;2024-03-25T16:24:53;27.40;74.20
17986;DHT22;9118;48.122;11.546;2024-03-25T16:27:19;26.70;73.50
17986;DHT22;9118;48.122;11.546;2024-03-25T16:29:45;25.90;74.60
17986;DHT22;9118;48.122;11.546;2024-03-25T16:32:12;25.20;75.30
17986;DHT22;9118;48.122;11.546;2024-03-25T16:34:38;24.70;75.80
17986;DHT22;9118;48.122;11.546;2024-03-25T16:37:04;23.80;79.40
17986;DHT22;9118;48.122;11.546;2024-03-25T16:39:33;22.70;80.70
17986;DHT22;9118;48.122;11.546;2024-03-25T16:41:59;21.50;95.90
17986;DHT22;9118;48.122;11.546;2024-03-25T16:44:26;20.40;92.40
17986;DHT22;9118;48.122;11.546;2024-03-25T16:46:53;19.30;85.80
17986;DHT22;9118;48.122;11.546;2024-03-25T16:49:21;18.80;92.20
17986;DHT22;9118;48.122;11.546;2024-03-25T16:51:46;17.60;94.60
17986;DHT22;9118;48.122;11.546;2024-03-25T16:54:12;17.00;87.10
17986;DHT22;9118;48.122;11.546;2024-03-25T16:56:38;16.50;87.00
17986;DHT22;9118;48.122;11.546;2024-03-25T16:59:04;16.20;86.90
17986;DHT22;9118;48.122;11.546;2024-03-25T17:01:30;15.60;87.10
17986;DHT22;9118;48.122;11.546;2024-03-25T17:03:57;15.10;85.30
17986;DHT22;9118;48.122;11.546;2024-03-25T17:06:24;15.00;84.50
17986;DHT22;9118;48.122;11.546;2024-03-25T17:08:51;14.50;90.10
17986;DHT22;9118;48.122;11.546;2024-03-25T17:11:17;14.20;90.70
17986;DHT22;9118;48.122;11.546;2024-03-25T17:13:43;13.80;86.30
17986;DHT22;9118;48.122;11.546;2024-03-25T17:16:09;13.40;87.00
17986;DHT22;9118;48.122;11.546;2024-03-25T17:18:35;13.30;90.20
17986;DHT22;9118;48.122;11.546;2024-03-25T17:21:01;12.90;92.30
17986;DHT22;9118;48.122;11.546;2024-03-25T17:23:28;12.80;92.50
17986;DHT22;9118;48.122;11.546;2024-03-25T17:25:54;12.70;93.50
17986;DHT22;9118;48.122;11.546;2024-03-25T17:28:20;12.20;93.90
17986;DHT22;9118;48.122;11.546;2024-03-25T17:30:47;12.40;97.00